首页
METAR-TAF:

METAR-TAF

机场 :

曼海姆, 德国

纬度: 49-28-21N, 经度: 008-30-56E, 海拔: 100米

当前天气观测

该预报发布于27分钟前的10:20 UTC
风速4节,风向西,在西南西转西北之间变化
温度 5°C
湿度 87%
气压 1009 hPa
能見度: 7000

METAR: EDFM 221020Z 26004KT 230V290 7000 NSC 05/03 Q1009

时间: 11:47 (10:47 UTC)

预报

该预报发布于1小时和42分钟前的09:05 UTC
预报有效从22日的 09点(UTC)到 22日的 18点(UTC)
风速3节,风向多变
能見度: 4500
少量云层高于1100英尺
轻雾
成为
从 22日的 09点(UTC)到 22日的 12点(UTC)
能見度: 8000

TAF: EDFM 220905Z 2209/2218 VRB03KT 4500 BR FEW011 BECMG 2209/2212 8000

超过4000个机场的气象观测和天气预报(METAR&TAF报告)。

可查询的气象台以黄色和红色小点在地图上表示。

将鼠标移到小点上方,可查看气象台名称。

然后点击查看天气观测和预报。

如需切换地图:点击带黑十字的绿色按钮放大地图;点击带横线的绿色按钮缩小地图;或者点击绿色箭头查看邻近地区的地图。


METAR-TAF: